createdAt,value
2022-09-15T00:06:16.332Z,1008.77
2022-09-15T00:20:16.318Z,1008.85
2022-09-15T00:34:16.310Z,1008.63
2022-09-15T00:48:16.319Z,1008.43
2022-09-15T01:02:16.362Z,1008.47
2022-09-15T01:16:16.438Z,1008.5
2022-09-15T01:30:16.369Z,1008.41
2022-09-15T01:44:16.389Z,1008.21
2022-09-15T01:58:16.449Z,1008.28
2022-09-15T02:12:16.353Z,1008.37
2022-09-15T02:26:16.368Z,1008.1
2022-09-15T02:40:16.441Z,1008.03
2022-09-15T02:54:16.393Z,1007.84
2022-09-15T03:08:16.372Z,1007.35
2022-09-15T03:22:16.396Z,1007.18
2022-09-15T03:36:16.406Z,1006.82
2022-09-15T03:50:16.413Z,1006.55
2022-09-15T04:04:16.407Z,1006.75
2022-09-15T04:18:16.408Z,1007.26
2022-09-15T04:32:16.464Z,1007.34
2022-09-15T04:47:16.463Z,1007.25
2022-09-15T05:02:16.528Z,1007.68
2022-09-15T05:17:16.452Z,1008.13
2022-09-15T05:33:16.426Z,1008.49
2022-09-15T05:48:16.450Z,1008.62
2022-09-15T06:03:16.478Z,1008.6
2022-09-15T06:18:16.445Z,1008.56
2022-09-15T06:33:16.459Z,1008.49
2022-09-15T06:48:24.296Z,1008.7
2022-09-15T07:03:16.672Z,1008.52
2022-09-15T07:18:16.488Z,1008.48
2022-09-15T07:33:16.495Z,1008.36
2022-09-15T07:48:16.509Z,1008.25
2022-09-15T08:03:16.486Z,1007.99
2022-09-15T08:18:16.472Z,1007.91
2022-09-15T08:33:16.497Z,1007.81
2022-09-15T08:49:23.569Z,1007.73
2022-09-15T09:04:18.092Z,1007.55
2022-09-15T09:19:16.534Z,1007.18
2022-09-15T09:34:16.545Z,1007.09
2022-09-15T09:49:16.564Z,1006.8
2022-09-15T10:04:16.673Z,1006.58
2022-09-15T10:19:16.687Z,1006.31
2022-09-15T10:34:16.677Z,1006.18
2022-09-15T10:50:16.692Z,1006.19
2022-09-15T11:05:20.267Z,1006.1
2022-09-15T11:20:16.729Z,1005.76
2022-09-15T11:35:16.685Z,1005.7
2022-09-15T11:50:16.685Z,1005.72
2022-09-15T12:05:16.751Z,1005.54
2022-09-15T12:20:16.751Z,1005.49
2022-09-15T12:35:16.799Z,1005.43
2022-09-15T12:50:16.948Z,1005.29
2022-09-15T13:05:16.831Z,1005.14
2022-09-15T13:20:16.847Z,1004.96
2022-09-15T13:35:20.341Z,1004.75
2022-09-15T13:50:16.974Z,1004.41
2022-09-15T14:05:16.937Z,1004.22
2022-09-15T14:20:17.079Z,1003.85
2022-09-15T14:35:18.775Z,1003.76
2022-09-15T14:50:16.992Z,1003.7
2022-09-15T15:05:17.007Z,1003.94
2022-09-15T15:20:17.004Z,1003.95
2022-09-15T15:35:16.996Z,1003.68
2022-09-15T15:50:16.980Z,1003.84
2022-09-15T16:05:16.979Z,1003.78
2022-09-15T16:20:17.000Z,1004.06
2022-09-15T16:35:17.014Z,1003.92
2022-09-15T16:50:17.038Z,1004.17
2022-09-15T17:05:18.033Z,1004.33
2022-09-15T17:20:18.435Z,1004.43
2022-09-15T17:35:17.240Z,1004.48
2022-09-15T17:50:17.238Z,1004.59
2022-09-15T18:04:17.275Z,1004.6
2022-09-15T18:18:17.322Z,1004.63
2022-09-15T18:32:17.357Z,1004.62
2022-09-15T18:46:17.391Z,1004.53
2022-09-15T19:00:17.447Z,1004.8
2022-09-15T19:14:17.477Z,1004.79
2022-09-15T19:28:17.563Z,1004.94
2022-09-15T19:42:17.577Z,1005.07
2022-09-15T19:56:17.556Z,1005.22
2022-09-15T20:10:17.542Z,1005.69
2022-09-15T20:24:17.698Z,1005.76
2022-09-15T20:38:17.691Z,1005.86
2022-09-15T20:52:17.719Z,1006.1
2022-09-15T21:06:17.709Z,1006.13
2022-09-15T21:20:17.710Z,1006.16
2022-09-15T21:34:17.767Z,1006.18
2022-09-15T21:48:17.750Z,1006.24
2022-09-15T22:02:17.750Z,1006.21
2022-09-15T22:16:17.910Z,1006.21
2022-09-15T22:30:17.867Z,1006.17
2022-09-15T22:44:17.872Z,1006.1
2022-09-15T22:58:17.861Z,1006.18
2022-09-15T23:12:18.028Z,1006.2
2022-09-15T23:26:18.002Z,1006.03
2022-09-15T23:40:18.107Z,1006.07
2022-09-15T23:54:18.045Z,1006.01
